Time;durP1;ratioP1;P1;durP2;ratioP2;P2;SDS_P1;SDS_P2;PMS_P1;PMS_P2;Temp;Humidity;BMP_temperature;BMP_pressure;BME280_temperature;BME280_humidity;BME280_pressure;Samples;Min_cycle;Max_cycle;Signal;HPM_P1;HPM_P2
2023/10/08 00:00:49;;;;;;;21.13;5.32;;;;;;;16.82;100.00;102424.94;5035108;28;20208;-73
2023/10/08 00:03:20;;;;;;;21.95;5.88;;;;;;;16.81;100.00;102420.56;5034850;28;20037;-73
2023/10/08 00:05:46;;;;;;;19.58;5.90;;;;;;;16.77;100.00;102421.00;5035147;28;20026;-73
2023/10/08 00:08:11;;;;;;;19.73;5.30;;;;;;;16.74;100.00;102422.13;5034836;28;20036;-73
2023/10/08 00:10:41;;;;;;;20.48;5.90;;;;;;;16.75;100.00;102421.97;5034891;28;20037;-73
2023/10/08 00:13:10;;;;;;;20.65;5.68;;;;;;;16.72;100.00;102422.25;5034928;28;20064;-73
2023/10/08 00:15:36;;;;;;;26.33;6.40;;;;;;;16.70;100.00;102416.16;5034478;28;20117;-72
2023/10/08 00:18:05;;;;;;;18.05;5.35;;;;;;;16.67;100.00;102404.84;5035133;28;20041;-73
2023/10/08 00:20:42;;;;;;;22.85;5.93;;;;;;;16.62;100.00;102410.66;5034657;28;20047;-73
2023/10/08 00:23:09;;;;;;;20.73;5.95;;;;;;;16.61;100.00;102413.47;5035122;28;20084;-73
2023/10/08 00:25:40;;;;;;;21.13;5.57;;;;;;;16.58;100.00;102409.22;5034690;28;20052;-73
2023/10/08 00:28:10;;;;;;;;;;;;;;;16.55;100.00;102396.09;5035430;28;20064;-73
2023/10/08 00:30:38;;;;;;;23.67;5.88;;;;;;;16.50;100.00;102393.81;5034019;28;20376;-73
2023/10/08 00:33:04;;;;;;;27.13;5.80;;;;;;;16.47;100.00;102391.41;5034374;28;20029;-73
2023/10/08 00:35:30;;;;;;;22.83;6.05;;;;;;;16.45;100.00;102389.84;5016458;28;20364;-73
2023/10/08 00:38:00;;;;;;;16.00;6.00;;;;;;;16.43;100.00;102384.63;5034764;28;20112;-73
2023/10/08 00:40:35;;;;;;;22.27;5.80;;;;;;;16.41;100.00;102373.19;5034796;28;20021;-73
2023/10/08 00:43:03;;;;;;;29.05;6.10;;;;;;;16.41;100.00;102373.19;5034901;28;20032;-73
2023/10/08 00:45:30;;;;;;;22.35;5.78;;;;;;;16.47;100.00;102372.59;5034171;28;20055;-73
2023/10/08 00:47:56;;;;;;;22.35;5.80;;;;;;;16.49;100.00;102381.38;5034372;28;20117;-73
2023/10/08 00:50:30;;;;;;;28.23;5.78;;;;;;;16.52;100.00;102380.25;5035010;28;20026;-73
2023/10/08 00:53:00;;;;;;;26.58;5.68;;;;;;;16.50;100.00;102387.59;5034620;28;20086;-72
2023/10/08 00:55:30;;;;;;;20.52;5.93;;;;;;;16.44;100.00;102399.75;5034850;28;20029;-73
2023/10/08 00:57:58;;;;;;;16.48;5.63;;;;;;;16.38;100.00;102408.38;5016398;28;20120;-73
2023/10/08 01:00:37;;;;;;;22.30;6.43;;;;;;;16.34;100.00;102410.47;5035014;28;20056;-73
2023/10/08 01:03:14;;;;;;;25.08;5.93;;;;;;;16.30;100.00;102408.22;5034096;28;20037;-72
2023/10/08 01:05:46;;;;;;;25.35;6.15;;;;;;;16.25;100.00;102403.25;5034173;28;20036;-73
2023/10/08 01:08:17;;;;;;;28.73;6.63;;;;;;;16.20;100.00;102409.03;5034128;28;20449;-73
2023/10/08 01:10:47;;;;;;;;;;;;;;;16.18;100.00;102413.72;5034218;28;20033;-72
2023/10/08 01:13:19;;;;;;;20.58;5.70;;;;;;;16.17;100.00;102411.16;5033676;28;19913;-73
2023/10/08 01:15:47;;;;;;;22.25;5.80;;;;;;;16.17;100.00;102397.75;5034080;28;20021;-72
2023/10/08 01:18:19;;;;;;;20.92;5.75;;;;;;;16.13;100.00;102396.31;5033615;28;20025;-73
2023/10/08 01:23:31;;;;;;;23.15;5.95;;;;;;;16.19;100.00;102401.97;5033493;28;20033;-73
2023/10/08 01:26:12;;;;;;;22.73;6.25;;;;;;;16.22;100.00;102415.13;5033601;28;20365;-73
2023/10/08 01:28:38;;;;;;;26.52;5.93;;;;;;;16.25;100.00;102405.09;5033488;28;20111;-73
2023/10/08 01:31:04;;;;;;;24.13;5.80;;;;;;;16.24;100.00;102403.41;5033254;28;20029;-72
2023/10/08 01:33:30;;;;;;;22.08;5.68;;;;;;;16.21;100.00;102409.88;5033346;28;20031;-72
2023/10/08 01:36:05;;;;;;;23.10;6.45;;;;;;;16.19;100.00;102417.25;5033273;28;20040;-72
2023/10/08 01:38:33;;;;;;;23.92;6.53;;;;;;;16.16;100.00;102417.50;5000127;28;20025;-73
2023/10/08 01:41:03;;;;;;;14.63;5.53;;;;;;;16.12;100.00;102422.31;5015286;28;20034;-72
2023/10/08 01:43:29;;;;;;;20.67;5.70;;;;;;;16.09;100.00;102440.53;5033854;28;20093;-73
2023/10/08 01:45:55;;;;;;;26.30;6.18;;;;;;;16.07;100.00;102439.81;5033500;28;20103;-73
2023/10/08 01:48:27;;;;;;;26.67;6.00;;;;;;;16.04;100.00;102440.94;5015346;28;20025;-72
2023/10/08 01:51:01;;;;;;;28.10;7.53;;;;;;;16.02;100.00;102457.19;5033965;28;20030;-72
2023/10/08 01:53:27;;;;;;;17.85;6.28;;;;;;;16.01;100.00;102457.31;5033035;28;20033;-72
2023/10/08 01:55:53;;;;;;;25.63;6.57;;;;;;;16.02;100.00;102449.13;5033054;28;20087;-73
2023/10/08 01:58:20;;;;;;;21.70;6.63;;;;;;;16.02;100.00;102453.66;5032621;28;20026;-72
2023/10/08 02:00:46;;;;;;;16.50;5.25;;;;;;;16.02;100.00;102457.19;5033034;28;20051;-72
2023/10/08 02:03:16;;;;;;;30.95;6.53;;;;;;;16.02;100.00;102451.97;5032796;28;20033;-72
2023/10/08 02:05:46;;;;;;;23.33;6.00;;;;;;;-145.82;100.00;64029.03;5033404;28;20060;-72
2023/10/08 02:08:12;;;;;;;22.83;5.72;;;;;;;16.02;100.00;102457.19;5033067;28;20076;-74
2023/10/08 02:11:29;;;;;;;19.23;5.88;;;;;;;-145.82;100.00;64029.03;5032865;28;20331;-72
2023/10/08 02:14:04;;;;;;;18.45;6.63;;;;;;;16.02;100.00;84078.69;5032581;28;20029;-73
2023/10/08 02:17:06;;;;;;;14.10;5.47;;;;;;;-145.82;100.00;64029.03;4999400;28;20032;-73
2023/10/08 02:19:59;;;;;;;17.73;6.32;;;;;;;16.02;100.00;102473.47;5032978;28;20036;-72
2023/10/08 02:22:35;;;;;;;22.00;6.75;;;;;;;16.02;100.00;102457.19;5033202;28;20085;-73
2023/10/08 02:25:01;;;;;;;29.55;6.45;;;;;;;16.02;100.00;102457.19;5016693;28;20116;-73
2023/10/08 02:27:33;;;;;;;18.70;6.13;;;;;;;16.02;100.00;102457.19;5033075;28;20104;-73
2023/10/08 02:29:59;;;;;;;16.17;6.00;;;;;;;16.02;100.00;102457.19;5032726;28;20446;-73
2023/10/08 02:33:25;;;;;;;20.23;5.88;;;;;;;-145.82;100.00;64029.03;5032853;28;20026;-73
2023/10/08 02:36:48;;;;;;;15.63;6.03;;;;;;;-145.82;100.00;64029.03;5015523;28;20426;-73
2023/10/08 02:40:30;;;;;;;18.58;6.20;;;;;;;-145.82;100.00;64029.03;5032803;28;20056;-72
2023/10/08 02:43:59;;;;;;;22.75;6.90;;;;;;;-145.82;100.00;64029.03;5032928;28;20104;-72
2023/10/08 02:47:20;;;;;;;16.95;5.78;;;;;;;-145.82;100.00;64029.03;5032955;28;20393;-73
2023/10/08 02:50:45;;;;;;;17.70;6.32;;;;;;;-145.82;100.00;64029.03;5032655;28;20315;-74
2023/10/08 02:54:16;;;;;;;24.65;6.65;;;;;;;-145.82;100.00;64029.03;5033681;28;20030;-73
2023/10/08 02:57:40;;;;;;;22.20;6.90;;;;;;;-145.82;100.00;64029.03;5036425;28;20029;-74
2023/10/08 03:01:12;;;;;;;18.42;6.03;;;;;;;-145.82;100.00;64029.03;5036848;28;20488;-73
2023/10/08 03:04:32;;;;;;;20.23;6.13;;;;;;;-145.82;100.00;64029.03;5036361;28;20511;-74
2023/10/08 03:06:57;;;;;;;22.77;7.25;;;;;;;-145.82;100.00;64029.03;5036692;28;20029;-73
2023/10/08 03:09:24;;;;;;;20.42;6.47;;;;;;;-145.82;100.00;64029.03;5036207;28;20346;-74
2023/10/08 03:11:51;;;;;;;20.40;6.55;;;;;;;-145.82;100.00;64029.03;5036088;28;20034;-73
2023/10/08 03:14:23;;;;;;;17.67;6.70;;;;;;;-145.82;100.00;64029.03;5036096;28;20029;-73
2023/10/08 03:16:50;;;;;;;22.77;7.32;;;;;;;-145.82;100.00;64029.03;5036295;28;20100;-74
2023/10/08 03:19:19;;;;;;;19.42;5.80;;;;;;;-145.82;100.00;64029.03;5035915;28;20056;-73
2023/10/08 03:21:51;;;;;;;19.38;6.72;;;;;;;-145.82;100.00;64029.03;5035844;28;20036;-73
2023/10/08 03:27:59;;;;;;;23.17;7.35;;;;;;;-145.82;100.00;64029.03;5036449;28;20033;-74
2023/10/08 03:31:43;;;;;;;26.98;6.95;;;;;;;-145.82;100.00;64029.03;5036198;28;20041;-73
2023/10/08 03:35:10;;;;;;;19.55;6.65;;;;;;;-145.82;100.00;64029.03;5035284;28;20037;-73
2023/10/08 03:39:12;;;;;;;23.90;7.70;;;;;;;-145.82;100.00;64029.03;5026916;28;20025;-73
2023/10/08 03:42:25;;;;;;;22.17;7.00;;;;;;;-145.82;100.00;64029.03;5032673;28;20017;-73
2023/10/08 03:45:53;;;;;;;26.42;6.63;;;;;;;-145.82;100.00;64029.03;5035506;28;20087;-73
2023/10/08 03:52:48;;;;;;;22.90;7.72;;;;;;;-145.82;100.00;64029.03;5035963;28;20034;-74
2023/10/08 03:56:14;;;;;;;24.75;7.90;;;;;;;-145.82;100.00;64029.03;5036071;28;20083;-72
2023/10/08 03:59:40;;;;;;;23.48;7.85;;;;;;;-145.82;100.00;64029.03;5034989;28;20041;-73
2023/10/08 04:02:41;;;;;;;30.40;7.75;;;;;;;16.02;100.00;102457.19;5035398;28;20032;-72
2023/10/08 04:06:22;;;;;;;28.85;7.82;;;;;;;-145.82;100.00;64029.03;5019625;28;20111;-73
2023/10/08 04:09:47;;;;;;;27.57;7.90;;;;;;;-145.82;100.00;64029.03;5035811;28;20429;-72
2023/10/08 04:12:18;;;;;;;29.98;8.75;;;;;;;16.02;100.00;102457.19;5017502;28;20025;-71
2023/10/08 04:15:42;;;;;;;33.03;8.98;;;;;;;-145.82;100.00;64029.03;5034870;28;20026;-73
2023/10/08 04:19:07;;;;;;;25.42;8.48;;;;;;;-145.82;100.00;64029.03;5034867;28;20045;-73
2023/10/08 04:22:31;;;;;;;25.92;7.68;;;;;;;-145.82;100.00;64029.03;5034740;28;20108;-73
2023/10/08 04:25:55;;;;;;;26.75;7.18;;;;;;;-145.82;100.00;64029.03;5034871;28;20041;-73
2023/10/08 04:29:22;;;;;;;29.27;8.10;;;;;;;-145.82;100.00;64029.03;5034869;28;20034;-73
2023/10/08 04:32:40;;;;;;;21.90;7.85;;;;;;;-145.82;100.00;64029.03;5034869;28;20033;-73
2023/10/08 04:36:07;;;;;;;19.20;7.55;;;;;;;-145.82;100.00;64029.03;5035092;28;20059;-73
2023/10/08 04:39:33;;;;;;;31.98;8.20;;;;;;;-145.82;100.00;64029.03;5034865;28;20401;-73
2023/10/08 04:42:30;;;;;;;22.42;7.47;;;;;;;16.02;100.00;102457.19;5034518;28;20026;-73
2023/10/08 04:45:56;;;;;;;25.35;8.68;;;;;;;-145.82;100.00;64029.03;5034725;28;20033;-73
2023/10/08 04:49:45;;;;;;;28.98;8.27;;;;;;;-145.82;nan;64029.03;5034168;28;20033;-73
2023/10/08 04:53:07;;;;;;;22.58;8.27;;;;;;;-145.82;100.00;64029.03;5033560;28;20044;-73
2023/10/08 04:56:28;;;;;;;38.15;9.30;;;;;;;-145.82;100.00;64029.03;5034281;28;20343;-73
2023/10/08 04:59:53;;;;;;;25.20;8.25;;;;;;;-145.82;100.00;64029.03;5024090;28;20076;-73
2023/10/08 05:03:20;;;;;;;25.73;8.20;;;;;;;-145.82;100.00;64029.03;5033881;28;20029;-73
2023/10/08 05:10:12;;;;;;;27.60;8.07;;;;;;;-145.82;100.00;64029.03;5033772;28;20050;-73
2023/10/08 05:13:30;;;;;;;26.25;8.23;;;;;;;16.02;100.00;102457.19;5033872;28;20030;-73
2023/10/08 05:17:03;;;;;;;24.48;8.18;;;;;;;-145.82;100.00;64029.03;5017637;28;20033;-73
2023/10/08 05:20:59;;;;;;;29.63;8.30;;;;;;;-145.82;100.00;64029.03;5034014;28;20068;-73
2023/10/08 05:27:09;;;;;;;47.42;10.50;;;;;;;-145.82;100.00;64029.03;5034278;28;20175;-73
2023/10/08 05:30:41;;;;;;;39.22;10.43;;;;;;;-145.82;100.00;64029.03;5033848;28;20366;-73
2023/10/08 05:34:16;;;;;;;39.45;10.52;;;;;;;-145.82;100.00;64029.03;5033616;28;20029;-72
2023/10/08 05:37:42;;;;;;;35.00;10.35;;;;;;;-145.82;100.00;64029.03;5033164;28;20041;-73
2023/10/08 05:41:27;;;;;;;38.33;9.82;;;;;;;-145.82;100.00;64029.03;5033184;28;20417;-72
2023/10/08 05:48:15;;;;;;;;;;;;;;;16.02;100.00;102457.19;5033922;28;20114;-73
2023/10/08 05:51:13;;;;;;;27.67;9.48;;;;;;;16.02;100.00;102457.19;5033600;28;19959;-73
2023/10/08 05:54:47;;;;;;;28.83;9.50;;;;;;;-145.82;100.00;64029.03;5033174;28;20021;-73
2023/10/08 05:57:38;;;;;;;34.50;9.93;;;;;;;-145.82;100.00;64029.03;5032776;28;20533;-73
2023/10/08 06:04:30;;;;;;;32.03;9.60;;;;;;;-145.82;100.00;64029.03;5033065;28;20090;-73
2023/10/08 06:07:17;;;;;;;39.13;8.55;;;;;;;-145.82;100.00;64029.03;5030208;28;20034;-72
2023/10/08 06:10:13;;;;;;;38.15;8.40;;;;;;;-145.82;100.00;64029.03;5032944;28;20034;-72
2023/10/08 06:12:49;;;;;;;33.97;7.07;;;;;;;16.02;100.00;102457.19;5033233;28;20048;-73
2023/10/08 06:16:05;;;;;;;32.75;7.25;;;;;;;-145.82;100.00;64029.03;5033345;28;20025;-73
2023/10/08 06:18:32;;;;;;;36.55;6.18;;;;;;;-145.82;100.00;64029.03;5028699;28;20135;-73
2023/10/08 06:21:08;;;;;;;30.65;6.40;;;;;;;-145.82;100.00;64029.03;5032812;28;20038;-73
2023/10/08 06:23:36;;;;;;;24.73;5.57;;;;;;;-145.82;100.00;64029.03;5032692;28;20064;-73
2023/10/08 06:28:44;;;;;;;18.55;4.28;;;;;;;-145.82;100.00;64029.03;5034777;28;20112;-73
2023/10/08 06:31:16;;;;;;;12.73;4.40;;;;;;;-145.82;100.00;64029.03;5036824;28;20063;-73
2023/10/08 06:33:42;;;;;;;19.45;4.35;;;;;;;-145.82;100.00;64029.03;5037045;28;20205;-73
2023/10/08 06:36:15;;;;;;;14.68;4.47;;;;;;;-145.82;100.00;64029.03;5019583;28;20083;-73
2023/10/08 06:38:41;;;;;;;13.68;3.83;;;;;;;-145.82;100.00;64029.03;5019962;28;20044;-73
2023/10/08 06:41:15;;;;;;;12.45;3.92;;;;;;;-145.82;100.00;64029.03;5036777;28;20075;-73
2023/10/08 06:46:32;;;;;;;10.90;4.35;;;;;;;-145.82;100.00;64029.03;5036610;28;20103;-73
2023/10/08 06:49:11;;;;;;;9.38;3.47;;;;;;;-145.82;100.00;64029.03;5036374;28;20064;-73
2023/10/08 06:51:36;;;;;;;16.05;4.20;;;;;;;14.20;100.00;102638.34;5036418;28;20037;-73
2023/10/08 06:54:03;;;;;;;11.10;4.03;;;;;;;-145.82;100.00;64029.03;5036875;28;20022;-73
2023/10/08 06:56:31;;;;;;;15.55;4.65;;;;;;;14.26;100.00;102650.41;5036479;28;20087;-73
2023/10/08 06:58:58;;;;;;;18.38;5.80;;;;;;;-145.82;100.00;64029.03;5026570;28;20049;-73
2023/10/08 07:01:38;;;;;;;22.30;7.63;;;;;;;-145.82;100.00;64029.03;5056359;28;20510;-73
2023/10/08 07:04:06;;;;;;;18.67;8.30;;;;;;;-145.82;100.00;64029.03;5055903;28;20472;-73
2023/10/08 07:06:37;;;;;;;22.02;7.38;;;;;;;14.16;100.00;102644.06;5056237;28;20025;-73
2023/10/08 07:09:06;;;;;;;27.20;8.45;;;;;;;14.15;100.00;102637.00;5054973;28;20032;-73
2023/10/08 07:11:34;;;;;;;25.83;9.13;;;;;;;14.14;100.00;102654.03;5056295;28;20052;-73
2023/10/08 07:14:04;;;;;;;24.30;8.70;;;;;;;14.10;100.00;102661.44;5056115;28;20029;-73
2023/10/08 07:16:30;;;;;;;32.83;8.35;;;;;;;-145.82;100.00;64029.03;5056102;28;20040;-72
2023/10/08 07:19:02;;;;;;;20.15;7.50;;;;;;;-145.82;100.00;64029.03;5056118;28;20033;-73
2023/10/08 07:21:44;;;;;;;25.13;6.95;;;;;;;-145.82;100.00;64029.03;5056749;28;20020;-73
2023/10/08 07:24:15;;;;;;;23.40;6.25;;;;;;;-145.82;100.00;64029.03;5055983;28;20029;-73
2023/10/08 07:26:46;;;;;;;21.15;6.43;;;;;;;-145.82;100.00;64029.03;5055023;28;20032;-73
2023/10/08 07:29:12;;;;;;;19.75;6.10;;;;;;;-145.82;100.00;64029.03;5055839;28;20035;-73
2023/10/08 07:31:42;;;;;;;18.73;5.70;;;;;;;-145.82;100.00;64029.03;5055904;28;20048;-73
2023/10/08 07:36:50;;;;;;;19.15;5.53;;;;;;;-145.82;100.00;64029.03;5055602;28;20029;-72
2023/10/08 07:40:19;;;;;;;24.30;5.03;;;;;;;-145.82;100.00;64029.03;5054448;28;20361;-73
2023/10/08 07:42:12;;;;;;;16.20;5.35;;;;;;;-145.82;100.00;64029.03;5046005;28;20037;-73
2023/10/08 07:44:38;;;;;;;23.10;5.50;;;;;;;-145.82;100.00;64029.03;5054417;28;20031;-73
2023/10/08 07:47:11;;;;;;;20.08;4.88;;;;;;;-145.82;100.00;64029.03;5055665;28;20052;-74
2023/10/08 07:49:37;;;;;;;20.67;5.22;;;;;;;-145.82;100.00;64029.03;5055294;28;20334;-74
2023/10/08 07:52:05;;;;;;;17.27;4.95;;;;;;;-145.82;100.00;64029.03;5055353;28;20075;-74
2023/10/08 07:54:34;;;;;;;17.40;5.43;;;;;;;-145.82;100.00;64029.03;5055768;28;20056;-73
2023/10/08 07:57:11;;;;;;;19.83;5.13;;;;;;;-145.82;100.00;64029.03;5055572;28;20032;-77
2023/10/08 07:59:41;;;;;;;12.27;4.45;;;;;;;-145.82;100.00;64029.03;5044042;28;20461;-73
2023/10/08 08:02:11;;;;;;;18.85;4.60;;;;;;;-145.82;100.00;64029.03;5035362;28;20029;-73
2023/10/08 08:04:39;;;;;;;16.17;4.60;;;;;;;-145.82;100.00;64029.03;5035265;28;20025;-73
2023/10/08 08:07:06;;;;;;;13.57;4.97;;;;;;;-145.82;100.00;64029.03;5035069;28;20032;-73
2023/10/08 08:09:37;;;;;;;15.27;5.85;;;;;;;-145.82;100.00;64029.03;5035332;28;20457;-74
2023/10/08 08:12:11;;;;;;;17.95;5.30;;;;;;;-145.82;100.00;64029.03;5034306;28;20034;-73
2023/10/08 08:14:40;;;;;;;12.15;4.93;;;;;;;-145.82;100.00;64029.03;5035093;28;20406;-74
2023/10/08 08:17:13;;;;;;;18.15;5.53;;;;;;;14.96;100.00;102721.72;5034443;28;20041;-74
2023/10/08 08:19:52;;;;;;;15.40;4.43;;;;;;;14.90;100.00;102727.56;5034685;28;20113;-75
2023/10/08 08:22:23;;;;;;;17.90;5.00;;;;;;;14.86;100.00;102718.06;5034612;28;20118;-75
2023/10/08 08:24:55;;;;;;;11.90;4.72;;;;;;;14.89;100.00;102727.69;5034494;28;20077;-74
2023/10/08 08:27:31;;;;;;;13.88;4.93;;;;;;;14.89;100.00;102728.53;5034403;28;20450;-74
2023/10/08 08:30:09;;;;;;;18.08;4.35;;;;;;;14.88;100.00;102740.22;5034626;28;20033;-74
2023/10/08 08:32:43;;;;;;;10.82;4.28;;;;;;;14.74;100.00;102729.75;5035234;28;20029;-74
2023/10/08 08:35:09;;;;;;;12.68;4.28;;;;;;;14.74;100.00;102733.28;5034530;28;20029;-74
2023/10/08 08:37:38;;;;;;;14.73;4.70;;;;;;;14.61;100.00;102736.09;5033823;28;20037;-74
2023/10/08 08:40:17;;;;;;;18.02;5.03;;;;;;;14.61;100.00;102735.22;5016294;28;20021;-75
2023/10/08 08:42:48;;;;;;;14.27;5.20;;;;;;;14.62;100.00;102743.13;5034426;28;20029;-74
2023/10/08 08:45:22;;;;;;;13.80;4.70;;;;;;;14.66;100.00;64029.03;5033896;28;20025;-74
2023/10/08 08:47:48;;;;;;;15.27;5.25;;;;;;;-145.82;100.00;64029.03;5033762;28;20030;-75
2023/10/08 08:50:14;;;;;;;14.88;4.70;;;;;;;-145.82;100.00;64029.03;5033806;28;20167;-74
2023/10/08 08:52:40;;;;;;;11.43;4.20;;;;;;;-145.82;100.00;64029.03;5033582;28;20037;-75
2023/10/08 08:55:14;;;;;;;14.55;4.03;;;;;;;-145.82;100.00;64029.03;4999620;28;20066;-74
2023/10/08 08:57:44;;;;;;;13.10;4.28;;;;;;;14.84;100.00;102745.94;5034117;28;20444;-74
2023/10/08 09:00:18;;;;;;;13.35;4.35;;;;;;;14.77;100.00;102743.75;5033128;28;20450;-74
2023/10/08 09:02:47;;;;;;;12.80;3.55;;;;;;;-145.82;100.00;64029.03;5034020;28;20120;-74
2023/10/08 09:05:23;;;;;;;10.82;3.30;;;;;;;-145.82;100.00;64029.03;5033874;28;20098;-73
2023/10/08 09:07:58;;;;;;;12.05;3.42;;;;;;;14.80;100.00;102732.78;5034648;28;20060;-74
2023/10/08 09:10:36;;;;;;;9.98;3.28;;;;;;;14.84;100.00;102736.09;5033735;28;20033;-75
2023/10/08 09:13:07;;;;;;;13.98;3.33;;;;;;;14.95;100.00;102729.88;5034016;28;20329;-74
2023/10/08 09:15:32;;;;;;;8.30;3.15;;;;;;;14.90;100.00;102730.25;5033668;28;20446;-75
2023/10/08 09:18:05;;;;;;;9.40;2.63;;;;;;;14.99;100.00;102723.31;5033490;28;20036;-74
2023/10/08 09:20:31;;;;;;;10.20;3.17;;;;;;;15.11;100.00;102721.47;5033596;28;20035;-75
2023/10/08 09:23:11;;;;;;;9.13;2.90;;;;;;;15.12;100.00;102717.81;5033204;28;20374;-74
2023/10/08 09:25:37;;;;;;;10.35;2.88;;;;;;;15.19;100.00;102715.50;5034725;28;20037;-73
2023/10/08 09:28:07;;;;;;;8.98;2.90;;;;;;;15.25;100.00;102726.56;5033469;28;20029;-74
2023/10/08 09:30:37;;;;;;;8.38;3.00;;;;;;;15.39;100.00;102721.91;5033903;28;20037;-74
2023/10/08 09:33:04;;;;;;;11.05;3.58;;;;;;;15.46;100.00;102734.69;5034095;28;20068;-74
2023/10/08 09:35:31;;;;;;;7.82;3.10;;;;;;;15.40;100.00;102742.41;5034386;28;20030;-74
2023/10/08 09:37:57;;;;;;;10.63;3.50;;;;;;;15.50;100.00;102741.53;5034359;28;20026;-73
2023/10/08 09:40:25;;;;;;;10.73;2.97;;;;;;;15.46;100.00;102734.69;5033897;28;20099;-76
2023/10/08 09:42:52;;;;;;;14.95;3.60;;;;;;;15.48;100.00;102718.47;5033550;28;20072;-75
2023/10/08 09:45:18;;;;;;;12.10;3.25;;;;;;;15.52;100.00;102712.75;5033635;28;20165;-75
2023/10/08 09:47:51;;;;;;;13.35;4.22;;;;;;;15.52;100.00;102718.13;5033393;28;20108;-75
2023/10/08 09:50:24;;;;;;;12.57;3.58;;;;;;;15.62;100.00;102717.38;5033755;28;20018;-78
2023/10/08 09:52:59;;;;;;;20.00;4.28;;;;;;;15.75;100.00;102723.41;5033201;28;20033;-75
2023/10/08 09:55:24;;;;;;;13.60;3.88;;;;;;;15.68;100.00;102731.09;5033413;28;20033;-74
2023/10/08 09:57:51;;;;;;;12.95;3.50;;;;;;;15.72;100.00;102721.00;5033249;28;20029;-73
2023/10/08 10:00:29;;;;;;;13.23;4.05;;;;;;;15.72;100.00;102715.63;5034482;28;20050;-74
2023/10/08 10:02:55;;;;;;;11.32;3.72;;;;;;;15.66;100.00;102721.50;5032727;28;20094;-73
2023/10/08 10:05:21;;;;;;;12.63;4.15;;;;;;;15.64;100.00;102729.66;5032872;28;20033;-73
2023/10/08 10:07:49;;;;;;;15.15;5.13;;;;;;;15.64;100.00;102713.53;5033093;28;20461;-74
2023/10/08 10:10:34;;;;;;;16.80;5.45;;;;;;;15.91;100.00;102724.84;5033337;28;20116;-75
2023/10/08 10:13:03;;;;;;;15.80;3.92;;;;;;;16.09;100.00;102725.13;5015225;28;20032;-74
2023/10/08 10:15:30;;;;;;;13.98;4.47;;;;;;;16.25;100.00;102733.59;5015756;28;20022;-76
2023/10/08 10:18:07;;;;;;;10.13;3.88;;;;;;;16.38;100.00;102730.72;5015324;28;20038;-74
2023/10/08 10:20:34;;;;;;;13.98;4.57;;;;;;;16.50;100.00;102726.97;5032943;28;20025;-73
2023/10/08 10:22:59;;;;;;;18.48;3.95;;;;;;;16.54;100.00;102732.91;5032790;28;20030;-73
2023/10/08 10:25:37;;;;;;;12.18;3.47;;;;;;;16.51;100.00;102733.19;5015128;28;20033;-74
2023/10/08 10:28:06;;;;;;;11.18;4.18;;;;;;;16.45;100.00;102739.97;5032400;28;20370;-78
2023/10/08 10:30:32;;;;;;;17.35;4.13;;;;;;;-145.82;100.00;64029.03;5033098;28;20041;-73
2023/10/08 10:33:00;;;;;;;8.95;3.40;;;;;;;16.31;100.00;102738.44;5032785;28;20479;-74
2023/10/08 10:35:27;;;;;;;14.25;4.38;;;;;;;16.27;100.00;102739.69;5032654;28;20036;-75
2023/10/08 10:37:55;;;;;;;13.40;3.92;;;;;;;16.44;100.00;102742.78;5032376;28;20044;-78
2023/10/08 10:40:39;;;;;;;10.57;3.92;;;;;;;16.64;100.00;102733.81;5032724;28;20052;-76
2023/10/08 10:43:06;;;;;;;10.45;3.90;;;;;;;16.72;100.00;102728.66;5033415;28;20029;-76
2023/10/08 10:45:46;;;;;;;12.02;4.22;;;;;;;16.77;100.00;102725.56;5015094;28;20347;-76
2023/10/08 10:53:22;;;;;;;14.50;3.58;;;;;;;16.90;100.00;102726.22;5033243;28;20034;-73
2023/10/08 10:55:59;;;;;;;14.15;4.40;;;;;;;16.86;100.00;102726.59;5033008;28;20030;-72
2023/10/08 10:58:28;;;;;;;8.68;3.75;;;;;;;16.94;100.00;102720.56;5033115;28;20116;-75
2023/10/08 11:01:04;;;;;;;12.35;3.83;;;;;;;16.95;100.00;102722.28;5050278;28;20094;-76
2023/10/08 11:03:34;;;;;;;8.95;3.65;;;;;;;17.10;100.00;102712.84;5052861;28;20032;-75
2023/10/08 11:06:05;;;;;;;14.20;3.97;;;;;;;17.18;100.00;102707.66;5052817;28;20392;-75
2023/10/08 11:08:34;;;;;;;;;;;;;;;17.33;100.00;102712.63;5053358;28;20029;-74
2023/10/08 11:11:05;;;;;;;13.88;3.83;;;;;;;17.39;100.00;102709.38;5052782;28;19919;-75
2023/10/08 11:13:37;;;;;;;9.32;3.72;;;;;;;17.63;100.00;102703.63;5052609;28;20131;-76
2023/10/08 11:16:05;;;;;;;16.10;4.10;;;;;;;17.74;100.00;102711.53;5056122;28;20404;-75
2023/10/08 11:18:32;;;;;;;13.60;5.10;;;;;;;17.93;100.00;102713.41;5056184;28;20029;-76
2023/10/08 11:21:23;;;;;;;15.60;4.43;;;;;;;18.09;100.00;102709.28;5054975;28;20056;-75
2023/10/08 11:23:53;;;;;;;;;;;;;;;17.95;100.00;102710.59;5056547;28;20445;-75
2023/10/08 11:26:19;;;;;;;14.45;4.28;;;;;;;17.90;100.00;102708.31;5056160;28;19905;-75
2023/10/08 11:28:47;;;;;;;12.25;4.57;;;;;;;17.77;100.00;102721.19;5056583;28;20025;-75
2023/10/08 11:31:20;;;;;;;12.95;4.72;;;;;;;17.74;100.00;102711.53;5054697;28;20028;-75
2023/10/08 11:33:53;;;;;;;15.50;4.57;;;;;;;17.61;100.00;102714.50;5056459;28;20082;-75
2023/10/08 11:36:22;;;;;;;21.63;5.50;;;;;;;17.50;100.00;102714.63;5056352;28;20033;-75
2023/10/08 11:38:47;;;;;;;11.82;4.57;;;;;;;17.41;100.00;102712.78;5055866;28;20155;-74
2023/10/08 11:41:20;;;;;;;17.98;5.30;;;;;;;17.35;100.00;102705.28;5055597;28;20037;-74
2023/10/08 11:43:53;;;;;;;17.27;5.10;;;;;;;17.26;100.00;102706.94;5055583;28;20029;-76
2023/10/08 11:46:25;;;;;;;17.02;5.28;;;;;;;17.26;100.00;102707.78;5055843;28;20025;-75
2023/10/08 11:48:51;;;;;;;18.70;5.88;;;;;;;17.23;100.00;102704.53;5056034;28;20029;-75
2023/10/08 11:51:17;;;;;;;16.45;5.45;;;;;;;17.33;100.00;102699.16;5055961;28;20021;-75
2023/10/08 11:53:44;;;;;;;16.05;5.38;;;;;;;17.44;100.00;102704.44;5056067;28;20075;-75
2023/10/08 11:56:13;;;;;;;13.75;5.75;;;;;;;17.55;100.00;102693.53;5055648;28;20025;-75
2023/10/08 11:58:44;;;;;;;20.17;5.60;;;;;;;17.74;100.00;102691.84;5055198;28;20032;-76
2023/10/08 12:01:15;;;;;;;12.75;5.20;;;;;;;18.05;100.00;102694.41;5044704;28;20149;-75
2023/10/08 12:03:44;;;;;;;13.15;5.40;;;;;;;18.28;100.00;102681.47;5035953;28;20060;-75
2023/10/08 12:06:15;;;;;;;14.15;5.78;;;;;;;18.51;100.00;102671.19;5035496;28;20039;-76
2023/10/08 12:08:41;;;;;;;15.07;5.72;;;;;;;18.66;100.00;102663.47;5036179;28;20056;-76
2023/10/08 12:11:11;;;;;;;16.88;5.85;;;;;;;18.84;100.00;102663.56;5035420;28;20034;-76
2023/10/08 12:13:44;;;;;;;16.75;5.90;;;;;;;18.86;100.00;102664.28;5035072;28;20030;-75
2023/10/08 12:16:18;;;;;;;13.32;6.03;;;;;;;18.68;100.00;102669.59;5036020;28;20049;-76
2023/10/08 12:18:58;;;;;;;22.35;5.90;;;;;;;18.59;100.00;102649.75;5035197;28;20064;-75
2023/10/08 12:21:33;;;;;;;19.00;6.33;;;;;;;18.74;100.00;102646.56;5035235;28;20105;-75
2023/10/08 12:23:58;;;;;;;16.88;6.53;;;;;;;18.89;100.00;102641.56;5018122;28;20124;-75
2023/10/08 12:26:24;;;;;;;19.17;5.50;;;;;;;18.90;100.00;102644.09;5034402;28;20072;-75
2023/10/08 12:28:50;;;;;;;15.68;6.00;;;;;;;18.96;100.00;102632.72;5035850;28;20032;-75
2023/10/08 12:31:23;;;;;;;18.27;6.15;;;;;;;18.82;100.00;102644.84;5035157;28;20104;-74
2023/10/08 12:33:53;;;;;;;14.40;5.40;;;;;;;18.66;100.00;102637.38;5034715;28;20462;-76
2023/10/08 12:36:26;;;;;;;16.42;5.72;;;;;;;18.58;100.00;102626.47;5034901;28;20116;-76
2023/10/08 12:38:57;;;;;;;16.27;5.85;;;;;;;18.48;100.00;102628.38;5018583;28;20026;-75
2023/10/08 12:41:24;;;;;;;20.00;6.70;;;;;;;18.32;100.00;102627.16;5035685;28;20087;-75
2023/10/08 12:43:52;;;;;;;16.50;6.22;;;;;;;18.19;100.00;102615.84;5034833;28;20025;-75
2023/10/08 12:46:18;;;;;;;13.90;5.85;;;;;;;18.12;100.00;102609.34;5017275;28;20036;-75